createdAt,value
2022-12-25T00:01:27.101Z,0.50
2022-12-25T00:03:59.045Z,0.50
2022-12-25T00:06:28.695Z,0.50
2022-12-25T00:08:57.371Z,0.50
2022-12-25T00:11:26.256Z,0.52
2022-12-25T00:13:57.201Z,0.60
2022-12-25T00:16:28.770Z,0.40
2022-12-25T00:19:02.892Z,0.68
2022-12-25T00:21:34.532Z,0.52
2022-12-25T00:24:04.225Z,0.57
2022-12-25T00:26:35.015Z,0.63
2022-12-25T00:29:05.912Z,0.70
2022-12-25T00:31:38.412Z,0.60
2022-12-25T00:34:10.471Z,0.73
2022-12-25T00:36:41.840Z,0.60
2022-12-25T00:39:13.007Z,1.48
2022-12-25T00:41:59.937Z,0.40
2022-12-25T00:44:31.005Z,0.60
2022-12-25T00:47:02.079Z,0.55
2022-12-25T00:49:30.893Z,0.50
2022-12-25T00:52:02.771Z,0.43
2022-12-25T00:54:31.658Z,0.43
2022-12-25T00:57:00.297Z,0.55
2022-12-25T00:59:33.448Z,0.55
2022-12-25T01:02:23.179Z,0.50
2022-12-25T01:04:54.489Z,0.70
2022-12-25T01:07:26.042Z,0.63
2022-12-25T01:10:19.423Z,0.50
2022-12-25T01:12:48.159Z,0.60
2022-12-25T01:15:16.860Z,0.60
2022-12-25T01:17:55.955Z,0.60
2022-12-25T01:20:27.597Z,0.85
2022-12-25T01:22:59.336Z,0.70
2022-12-25T01:25:28.134Z,0.90
2022-12-25T01:27:59.025Z,0.63
2022-12-25T01:30:27.763Z,0.50
2022-12-25T01:32:56.413Z,0.77
2022-12-25T01:35:27.912Z,0.70
2022-12-25T01:37:56.806Z,0.85
2022-12-25T01:40:25.702Z,0.70
2022-12-25T01:42:54.489Z,0.75
2022-12-25T01:45:40.994Z,0.77
2022-12-25T01:48:26.677Z,0.70
2022-12-25T01:51:20.936Z,0.88
2022-12-25T01:53:49.990Z,1.30
2022-12-25T01:56:21.082Z,0.65
2022-12-25T01:58:49.998Z,0.70
2022-12-25T02:01:18.711Z,0.65
2022-12-25T02:03:51.120Z,0.65
2022-12-25T02:06:19.878Z,0.85
2022-12-25T02:08:48.570Z,0.60
2022-12-25T02:11:41.288Z,0.50
2022-12-25T02:14:10.040Z,0.40
2022-12-25T02:16:56.519Z,0.50
2022-12-25T02:19:57.167Z,0.80
2022-12-25T02:23:01.233Z,0.93
2022-12-25T02:26:04.549Z,0.82
2022-12-25T02:28:46.292Z,0.70
2022-12-25T02:31:19.242Z,0.63
2022-12-25T02:34:06.338Z,0.85
2022-12-25T02:36:46.832Z,0.60
2022-12-25T02:39:43.024Z,0.70
2022-12-25T02:43:05.331Z,0.70
2022-12-25T02:46:01.670Z,0.70
2022-12-25T02:48:53.066Z,0.80
2022-12-25T02:51:51.488Z,0.90
2022-12-25T02:54:45.253Z,0.90
2022-12-25T02:57:35.919Z,0.90
2022-12-25T03:00:33.507Z,0.73
2022-12-25T03:03:25.560Z,0.88
2022-12-25T03:06:20.578Z,0.93
2022-12-25T03:09:16.265Z,0.88
2022-12-25T03:11:52.940Z,0.77
2022-12-25T03:17:09.977Z,1.00
2022-12-25T03:19:59.788Z,0.82
2022-12-25T03:22:49.442Z,0.90
2022-12-25T03:25:37.925Z,0.70
2022-12-25T03:28:11.861Z,0.73
2022-12-25T03:31:16.542Z,0.70
2022-12-25T03:34:25.531Z,0.68
2022-12-25T03:37:43.922Z,0.70
2022-12-25T03:40:59.885Z,0.68
2022-12-25T03:43:55.361Z,0.60
2022-12-25T03:46:47.266Z,0.77
2022-12-25T03:50:02.150Z,0.60
2022-12-25T03:52:54.114Z,0.47
2022-12-25T03:55:42.723Z,0.50
2022-12-25T03:58:41.594Z,0.47
2022-12-25T04:01:29.346Z,0.60
2022-12-25T04:04:16.503Z,0.77
2022-12-25T04:07:04.945Z,0.55
2022-12-25T04:09:55.056Z,0.60
2022-12-25T04:12:49.489Z,0.68
2022-12-25T04:15:36.809Z,0.70
2022-12-25T04:18:24.830Z,0.73
2022-12-25T04:21:14.936Z,0.70
2022-12-25T04:24:07.930Z,0.75
2022-12-25T04:26:57.425Z,0.80
2022-12-25T04:29:44.544Z,0.93
2022-12-25T04:32:31.584Z,0.82
2022-12-25T04:35:20.351Z,0.70
2022-12-25T04:37:53.932Z,0.85
2022-12-25T04:40:25.664Z,0.70
2022-12-25T04:42:58.587Z,0.70
2022-12-25T04:45:27.416Z,0.82
2022-12-25T04:47:56.160Z,1.00
2022-12-25T04:50:24.869Z,0.98
2022-12-25T04:52:53.517Z,0.80
2022-12-25T04:55:23.311Z,0.88
2022-12-25T04:57:56.145Z,0.90
2022-12-25T05:00:25.025Z,0.88
2022-12-25T05:02:53.970Z,0.60
2022-12-25T05:05:25.776Z,1.00
2022-12-25T05:08:01.493Z,0.70
2022-12-25T05:10:30.514Z,0.77
2022-12-25T05:13:04.297Z,0.65
2022-12-25T05:15:35.892Z,1.00
2022-12-25T05:18:06.223Z,1.08
2022-12-25T05:20:39.915Z,0.70
2022-12-25T05:23:13.111Z,0.70
2022-12-25T05:25:47.460Z,0.65
2022-12-25T05:28:16.407Z,1.05
2022-12-25T05:30:50.242Z,1.05
2022-12-25T05:33:21.458Z,0.70
2022-12-25T05:35:50.218Z,0.93
2022-12-25T05:38:21.280Z,0.95
2022-12-25T05:40:52.819Z,0.85
2022-12-25T05:43:24.798Z,1.00
2022-12-25T05:45:56.058Z,1.20
2022-12-25T05:48:24.795Z,1.05
2022-12-25T05:50:53.414Z,0.85
2022-12-25T05:53:22.088Z,1.25
2022-12-25T05:55:54.371Z,0.80
2022-12-25T05:58:25.557Z,0.90
2022-12-25T06:00:54.275Z,0.63
2022-12-25T06:03:30.892Z,0.70
2022-12-25T06:06:08.770Z,0.70
2022-12-25T06:08:40.743Z,0.80
2022-12-25T06:11:14.168Z,0.90
2022-12-25T06:13:45.529Z,1.25
2022-12-25T06:16:14.307Z,0.82
2022-12-25T06:18:46.293Z,1.23
2022-12-25T06:21:16.595Z,0.60
2022-12-25T06:23:45.829Z,0.80
2022-12-25T06:26:19.610Z,0.68
2022-12-25T06:28:48.925Z,0.80
2022-12-25T06:31:21.273Z,0.60
2022-12-25T06:33:50.355Z,0.60
2022-12-25T06:36:25.198Z,0.90
2022-12-25T06:38:54.669Z,0.50
2022-12-25T06:41:28.514Z,0.80
2022-12-25T06:44:00.339Z,0.88
2022-12-25T06:46:30.652Z,0.70
2022-12-25T06:49:02.901Z,0.75
2022-12-25T06:51:42.403Z,2.20
2022-12-25T06:54:16.068Z,0.93
2022-12-25T06:56:47.022Z,1.33
2022-12-25T06:59:15.850Z,1.50
2022-12-25T07:01:52.523Z,1.30
2022-12-25T07:04:41.587Z,1.40
2022-12-25T07:07:13.275Z,1.60
2022-12-25T07:09:43.352Z,1.27
2022-12-25T07:12:18.635Z,1.65
2022-12-25T07:14:52.834Z,1.38
2022-12-25T07:17:21.998Z,1.65
2022-12-25T07:19:55.031Z,1.10
2022-12-25T07:22:26.549Z,1.52
2022-12-25T07:24:56.188Z,1.50
2022-12-25T07:27:26.122Z,1.63
2022-12-25T07:29:57.169Z,1.40
2022-12-25T07:32:26.000Z,1.30
2022-12-25T07:34:57.672Z,1.15
2022-12-25T07:37:26.459Z,1.40
2022-12-25T07:40:00.813Z,1.23
2022-12-25T07:42:29.558Z,1.13
2022-12-25T07:44:58.200Z,0.93
2022-12-25T07:47:26.938Z,0.90
2022-12-25T07:50:04.376Z,1.65
2022-12-25T07:52:36.692Z,0.95
2022-12-25T07:55:11.083Z,1.30
2022-12-25T07:57:42.977Z,1.23
2022-12-25T08:00:12.257Z,0.98
2022-12-25T08:02:41.398Z,1.08
2022-12-25T08:05:13.868Z,1.35
2022-12-25T08:07:51.253Z,1.70
2022-12-25T08:10:26.521Z,1.58
2022-12-25T08:12:57.455Z,1.50
2022-12-25T08:15:27.989Z,1.20
2022-12-25T08:17:56.726Z,1.80
2022-12-25T08:20:25.495Z,1.35
2022-12-25T08:22:54.723Z,1.33
2022-12-25T08:25:23.661Z,1.20
2022-12-25T08:27:52.462Z,1.58
2022-12-25T08:30:23.452Z,4.68
2022-12-25T08:32:52.175Z,1.60
2022-12-25T08:35:20.823Z,1.20
2022-12-25T08:37:51.950Z,1.70
2022-12-25T08:40:22.948Z,1.42
2022-12-25T08:42:51.688Z,1.50
2022-12-25T08:45:28.524Z,1.40
2022-12-25T08:48:01.597Z,1.60
2022-12-25T08:50:32.750Z,1.50
2022-12-25T08:53:01.515Z,2.15
2022-12-25T08:55:30.777Z,1.38
2022-12-25T08:57:59.460Z,1.67
2022-12-25T09:00:37.842Z,1.90
2022-12-25T09:03:06.799Z,2.25
2022-12-25T09:05:39.120Z,2.17
2022-12-25T09:08:13.491Z,2.10
2022-12-25T09:10:43.067Z,2.10
2022-12-25T09:13:18.010Z,2.00
2022-12-25T09:15:46.892Z,2.05
2022-12-25T09:18:15.571Z,2.22
2022-12-25T09:20:44.601Z,1.77
2022-12-25T09:23:14.408Z,2.13
2022-12-25T09:25:43.480Z,1.60
2022-12-25T09:28:15.167Z,2.15
2022-12-25T09:30:43.921Z,2.00
2022-12-25T09:33:12.669Z,2.00
2022-12-25T09:35:42.663Z,2.22
2022-12-25T09:38:12.705Z,2.03
2022-12-25T09:40:42.001Z,2.05
2022-12-25T09:43:18.383Z,2.47
2022-12-25T09:45:47.229Z,3.03
2022-12-25T09:48:19.377Z,2.83
2022-12-25T09:50:59.369Z,2.70
2022-12-25T09:53:34.834Z,2.67
2022-12-25T09:56:20.416Z,2.47
2022-12-25T09:58:49.482Z,2.60
2022-12-25T10:01:56.420Z,1.70
2022-12-25T10:05:03.668Z,2.20
2022-12-25T10:08:05.487Z,1.80
2022-12-25T10:11:03.100Z,2.53
2022-12-25T10:13:45.536Z,2.55
2022-12-25T10:16:27.668Z,1.98
2022-12-25T10:19:27.966Z,2.15
2022-12-25T10:22:06.869Z,2.20
2022-12-25T10:24:49.402Z,2.47
2022-12-25T10:27:48.993Z,2.00
2022-12-25T10:30:21.234Z,1.60
2022-12-25T10:32:52.758Z,2.00
2022-12-25T10:35:33.796Z,1.67
2022-12-25T10:38:16.857Z,2.20
2022-12-25T10:41:06.667Z,2.30
2022-12-25T10:43:53.209Z,1.95
2022-12-25T10:46:24.053Z,1.80
2022-12-25T10:49:02.421Z,2.22
2022-12-25T10:51:40.030Z,1.88
2022-12-25T10:54:23.387Z,2.33
2022-12-25T10:57:06.041Z,2.17
2022-12-25T10:59:58.361Z,2.67
2022-12-25T11:02:29.437Z,2.88
2022-12-25T11:05:09.582Z,3.10
2022-12-25T11:07:51.977Z,5.47
2022-12-25T11:10:33.086Z,3.40
2022-12-25T11:13:08.778Z,4.13
2022-12-25T11:15:43.306Z,3.85
2022-12-25T11:18:30.660Z,2.42
2022-12-25T11:21:23.473Z,3.47
2022-12-25T11:24:01.821Z,4.75
2022-12-25T11:26:36.880Z,3.15
2022-12-25T11:29:23.277Z,2.03
2022-12-25T11:31:56.486Z,1.50
2022-12-25T11:34:45.626Z,1.95
2022-12-25T11:37:22.536Z,1.95
2022-12-25T11:39:54.395Z,1.50
2022-12-25T11:42:35.846Z,1.85
2022-12-25T11:45:26.550Z,1.85
2022-12-25T11:48:05.009Z,6.30
2022-12-25T11:50:39.437Z,4.15
2022-12-25T11:53:26.167Z,3.10
2022-12-25T11:56:05.171Z,3.92
2022-12-25T11:58:49.020Z,3.28
2022-12-25T12:01:20.512Z,2.25
2022-12-25T12:03:55.054Z,2.03
2022-12-25T12:06:55.818Z,2.50
2022-12-25T12:09:35.685Z,1.85
2022-12-25T12:12:22.736Z,2.45
2022-12-25T12:15:03.428Z,2.53
2022-12-25T12:17:33.645Z,2.58
2022-12-25T12:20:28.662Z,3.63
2022-12-25T12:23:01.644Z,4.25
2022-12-25T12:25:33.126Z,8.80
2022-12-25T12:28:05.709Z,5.40
2022-12-25T12:30:41.805Z,3.90
2022-12-25T12:33:21.799Z,2.83
2022-12-25T12:35:50.608Z,3.03
2022-12-25T12:38:23.965Z,2.22
2022-12-25T12:41:01.353Z,2.03
2022-12-25T12:43:36.086Z,2.00
2022-12-25T12:46:30.169Z,2.10
2022-12-25T12:49:24.519Z,1.67
2022-12-25T12:52:25.356Z,1.83
2022-12-25T12:55:07.712Z,1.98
2022-12-25T12:57:41.296Z,1.50
2022-12-25T13:00:24.708Z,2.00
2022-12-25T13:03:36.636Z,2.47
2022-12-25T13:06:29.151Z,2.35
2022-12-25T13:09:17.191Z,2.42
2022-12-25T13:11:46.201Z,3.63
2022-12-25T13:14:24.283Z,3.47
2022-12-25T13:16:55.437Z,3.15
2022-12-25T13:19:30.276Z,2.25
2022-12-25T13:22:04.744Z,2.33
2022-12-25T13:24:38.132Z,2.08
2022-12-25T13:27:28.031Z,1.88
2022-12-25T13:29:57.426Z,1.52
2022-12-25T13:32:29.867Z,2.00
2022-12-25T13:35:00.553Z,2.38
2022-12-25T13:37:32.783Z,2.03
2022-12-25T13:40:20.142Z,2.00
2022-12-25T13:42:56.215Z,1.33
2022-12-25T13:45:32.783Z,1.50
2022-12-25T13:48:17.744Z,1.80
2022-12-25T13:53:28.722Z,1.70
2022-12-25T13:56:02.905Z,1.92
2022-12-25T13:58:38.438Z,1.45
2022-12-25T14:01:08.116Z,1.67
2022-12-25T14:03:46.236Z,1.80
2022-12-25T14:06:24.749Z,1.77
2022-12-25T14:08:56.674Z,2.00
2022-12-25T14:11:28.246Z,1.67
2022-12-25T14:14:06.861Z,1.60
2022-12-25T14:16:38.902Z,2.10
2022-12-25T14:19:26.835Z,1.77
2022-12-25T14:22:19.616Z,1.60
2022-12-25T14:24:48.980Z,1.45
2022-12-25T14:27:31.020Z,1.60
2022-12-25T14:30:15.241Z,1.75
2022-12-25T14:32:54.109Z,1.75
2022-12-25T14:35:24.118Z,1.40
2022-12-25T14:37:57.919Z,1.45
2022-12-25T14:40:32.621Z,1.30
2022-12-25T14:43:06.354Z,1.90
2022-12-25T14:45:41.617Z,1.77
2022-12-25T14:48:25.591Z,1.48
2022-12-25T14:51:04.039Z,1.48
2022-12-25T14:53:41.528Z,1.10
2022-12-25T14:56:12.486Z,1.38
2022-12-25T14:58:52.692Z,1.92
2022-12-25T15:01:33.334Z,1.20
2022-12-25T15:04:08.723Z,1.27
2022-12-25T15:06:52.592Z,1.30
2022-12-25T15:09:23.429Z,1.30
2022-12-25T15:11:57.414Z,1.70
2022-12-25T15:14:27.559Z,2.30
2022-12-25T15:17:01.727Z,3.42
2022-12-25T15:19:37.274Z,3.05
2022-12-25T15:22:11.163Z,3.05
2022-12-25T15:24:42.912Z,2.92
2022-12-25T15:27:22.187Z,1.52
2022-12-25T15:32:39.664Z,1.92
2022-12-25T15:35:18.160Z,2.00
2022-12-25T15:37:47.795Z,1.88
2022-12-25T15:40:18.002Z,2.28
2022-12-25T15:42:50.769Z,2.17
2022-12-25T15:45:25.214Z,2.28
2022-12-25T15:47:54.118Z,2.33
2022-12-25T15:50:31.043Z,1.48
2022-12-25T15:53:05.262Z,2.72
2022-12-25T15:55:35.021Z,1.65
2022-12-25T15:58:03.792Z,1.58
2022-12-25T16:00:32.802Z,2.30
2022-12-25T16:03:01.908Z,2.25
2022-12-25T16:05:33.105Z,2.17
2022-12-25T16:08:04.877Z,1.88
2022-12-25T16:10:38.471Z,2.10
2022-12-25T16:13:12.253Z,2.00
2022-12-25T16:15:43.190Z,2.40
2022-12-25T16:18:14.719Z,2.25
2022-12-25T16:20:46.474Z,2.00
2022-12-25T16:23:16.785Z,1.90
2022-12-25T16:25:45.650Z,2.00
2022-12-25T16:28:14.414Z,2.00
2022-12-25T16:30:43.492Z,2.58
2022-12-25T16:33:16.825Z,1.80
2022-12-25T16:35:48.770Z,1.92
2022-12-25T16:38:17.495Z,1.95
2022-12-25T16:41:04.322Z,1.98
2022-12-25T16:43:34.918Z,2.13
2022-12-25T16:46:11.319Z,1.65
2022-12-25T16:48:41.821Z,2.20
2022-12-25T16:51:19.355Z,2.10
2022-12-25T16:53:48.499Z,2.13
2022-12-25T16:56:28.973Z,2.13
2022-12-25T16:58:59.367Z,1.90
2022-12-25T17:01:29.242Z,2.03
2022-12-25T17:04:03.603Z,2.83
2022-12-25T17:06:32.521Z,2.70
2022-12-25T17:09:03.607Z,2.47
2022-12-25T17:11:34.782Z,2.97
2022-12-25T17:14:05.451Z,2.63
2022-12-25T17:16:36.992Z,2.35
2022-12-25T17:19:12.187Z,2.53
2022-12-25T17:21:40.887Z,2.35
2022-12-25T17:24:12.584Z,2.75
2022-12-25T17:26:42.268Z,2.25
2022-12-25T17:29:15.974Z,2.30
2022-12-25T17:31:49.271Z,2.20
2022-12-25T17:34:20.245Z,2.25
2022-12-25T17:36:49.232Z,2.20
2022-12-25T17:39:17.927Z,2.55
2022-12-25T17:41:46.783Z,2.80
2022-12-25T17:44:18.439Z,2.45
2022-12-25T17:46:47.206Z,2.70
2022-12-25T17:49:20.472Z,2.65
2022-12-25T17:51:51.902Z,3.30
2022-12-25T17:54:20.712Z,2.78
2022-12-25T17:56:50.071Z,2.58
2022-12-25T17:59:19.305Z,2.35
2022-12-25T18:01:48.887Z,2.75
2022-12-25T18:04:17.726Z,2.35
2022-12-25T18:06:49.698Z,1.73
2022-12-25T18:09:23.403Z,2.38
2022-12-25T18:11:52.259Z,2.85
2022-12-25T18:14:20.943Z,2.15
2022-12-25T18:16:49.700Z,2.70
2022-12-25T18:19:20.519Z,2.88
2022-12-25T18:21:52.225Z,2.67
2022-12-25T18:24:25.551Z,3.05
2022-12-25T18:26:56.998Z,3.55
2022-12-25T18:29:28.175Z,2.50
2022-12-25T18:31:56.984Z,2.38
2022-12-25T18:34:25.747Z,2.47
2022-12-25T18:36:54.480Z,2.95
2022-12-25T18:39:23.122Z,2.60
2022-12-25T18:42:10.344Z,2.40
2022-12-25T18:47:07.482Z,2.40
2022-12-25T18:49:36.258Z,2.40
2022-12-25T18:52:48.031Z,2.72
2022-12-25T18:54:55.263Z,2.30
2022-12-25T18:57:28.805Z,2.33
2022-12-25T18:59:57.528Z,2.63
2022-12-25T19:02:29.083Z,2.65
2022-12-25T19:05:00.692Z,2.00
2022-12-25T19:07:29.453Z,2.58
2022-12-25T19:09:58.143Z,2.88
2022-12-25T19:12:27.336Z,2.58
2022-12-25T19:14:55.974Z,2.53
2022-12-25T19:17:31.351Z,2.30
2022-12-25T19:20:01.586Z,2.65
2022-12-25T19:22:35.152Z,1.88
2022-12-25T19:25:03.933Z,2.05
2022-12-25T19:27:36.035Z,2.15
2022-12-25T19:30:05.218Z,2.10
2022-12-25T19:32:33.902Z,2.05
2022-12-25T19:35:05.174Z,2.30
2022-12-25T19:37:39.263Z,2.42
2022-12-25T19:40:12.645Z,1.95
2022-12-25T19:42:41.372Z,1.85
2022-12-25T19:45:13.470Z,1.80
2022-12-25T19:47:51.433Z,2.63
2022-12-25T19:50:20.131Z,1.98
2022-12-25T19:52:49.021Z,3.20
2022-12-25T19:55:20.800Z,5.13
2022-12-25T19:57:52.463Z,13.90
2022-12-25T20:00:21.269Z,22.35
2022-12-25T20:02:50.069Z,22.05
2022-12-25T20:05:28.546Z,62.30
2022-12-25T20:08:00.544Z,60.08
2022-12-25T20:10:29.647Z,24.17
2022-12-25T20:12:58.285Z,24.00
2022-12-25T20:15:27.125Z,8.57
2022-12-25T20:17:56.014Z,6.65
2022-12-25T20:20:25.176Z,5.38
2022-12-25T20:22:56.804Z,5.03
2022-12-25T20:25:26.663Z,3.50
2022-12-25T20:27:57.771Z,4.70
2022-12-25T20:30:29.495Z,6.13
2022-12-25T20:33:00.958Z,4.60
2022-12-25T20:35:32.427Z,5.25
2022-12-25T20:38:01.231Z,4.13
2022-12-25T20:40:52.900Z,3.95
2022-12-25T20:43:23.993Z,3.45
2022-12-25T20:45:55.332Z,2.90
2022-12-25T20:48:24.872Z,3.33
2022-12-25T20:50:54.142Z,2.75
2022-12-25T20:53:22.780Z,2.83
2022-12-25T20:55:53.866Z,2.53
2022-12-25T20:58:22.574Z,4.13
2022-12-25T21:00:54.167Z,6.15
2022-12-25T21:03:23.018Z,6.70
2022-12-25T21:05:58.559Z,7.38
2022-12-25T21:08:27.999Z,4.28
2022-12-25T21:11:01.386Z,4.95
2022-12-25T21:13:32.716Z,5.57
2022-12-25T21:16:17.467Z,6.22
2022-12-25T21:18:48.777Z,8.38
2022-12-25T21:21:18.131Z,5.20
2022-12-25T21:23:49.974Z,6.20
2022-12-25T21:26:27.813Z,4.53
2022-12-25T21:29:00.906Z,5.35
2022-12-25T21:31:50.559Z,4.20
2022-12-25T21:34:19.329Z,5.53
2022-12-25T21:36:48.055Z,5.78
2022-12-25T21:39:17.049Z,4.78
2022-12-25T21:41:45.688Z,5.20
2022-12-25T21:44:16.897Z,4.68
2022-12-25T21:46:47.553Z,5.30
2022-12-25T21:49:38.112Z,4.03
2022-12-25T21:52:09.911Z,3.72
2022-12-25T21:54:45.334Z,2.85
2022-12-25T21:57:14.244Z,2.97
2022-12-25T21:59:42.873Z,2.95
2022-12-25T22:02:13.970Z,3.38
2022-12-25T22:04:45.938Z,2.70
2022-12-25T22:07:21.391Z,2.78
2022-12-25T22:09:52.432Z,3.35
2022-12-25T22:12:44.849Z,2.70
2022-12-25T22:15:13.752Z,3.60
2022-12-25T22:18:02.627Z,2.83
2022-12-25T22:20:39.117Z,3.15
2022-12-25T22:23:08.537Z,2.88
2022-12-25T22:25:37.143Z,3.35
2022-12-25T22:28:09.241Z,3.63
2022-12-25T22:30:45.042Z,3.50
2022-12-25T22:33:16.931Z,4.32
2022-12-25T22:35:45.652Z,2.88
2022-12-25T22:38:17.208Z,3.15
2022-12-25T22:40:45.910Z,3.67
2022-12-25T22:43:43.370Z,3.47
2022-12-25T22:46:13.502Z,3.58
2022-12-25T22:48:42.400Z,3.58
2022-12-25T22:51:14.497Z,6.50
2022-12-25T22:53:45.626Z,8.85
2022-12-25T22:56:17.537Z,6.38
2022-12-25T22:58:51.848Z,6.28
2022-12-25T23:01:23.256Z,3.65
2022-12-25T23:03:55.646Z,3.88
2022-12-25T23:06:24.424Z,3.75
2022-12-25T23:08:53.084Z,3.13
2022-12-25T23:11:25.648Z,3.45
2022-12-25T23:14:12.740Z,4.00
2022-12-25T23:16:44.708Z,3.90
2022-12-25T23:19:32.871Z,4.10
2022-12-25T23:22:20.060Z,4.00
2022-12-25T23:25:09.968Z,4.10
2022-12-25T23:27:38.997Z,3.67
2022-12-25T23:30:18.563Z,3.58
2022-12-25T23:32:47.368Z,3.38
2022-12-25T23:35:16.763Z,3.85
2022-12-25T23:37:48.463Z,3.70
2022-12-25T23:40:19.485Z,4.38
2022-12-25T23:42:51.357Z,3.97
2022-12-25T23:45:20.058Z,7.32
2022-12-25T23:47:50.100Z,6.40
2022-12-25T23:50:18.823Z,13.05
2022-12-25T23:52:47.430Z,8.57
2022-12-25T23:55:16.200Z,10.27
2022-12-25T23:57:44.854Z,9.00
